South Bend, Nebraska
Current Conditions -  °F | °C
As of 11:35 AM on Friday 31 Oct 2014 (Local Time) from KMLE Reporting Station
Clear Clear  
Wind Chill: 31°   Ceiling: Unl
Heat Index: 35°   Visibility: 10mi
Dew Point: 20°   Wind: 5mph
Humidity: 55%   Direction: 10°N
Pressure: 30.58"   Gusts: NA
Location:  41°N, 96.25°W
Report Text: KMLE 311635Z AUTO 01004KT 10SM CLR 02/M06 A3058 RMK AO2 T00181065
Loading
Personal Weather Stations






























Interactive Weather Map New forecast layout! Learn more

10-Day Weather Forecast

Advertisements
Track Severe Weather on mobile